Aviation Digital Data Service (ADDS)

Output produced by METARs form (1019 UTC 28 July 2015)
found at http://aviationweather.gov/adds/metars/
 
KHUL 281017Z 2810/2906 18004KT 4SM BR SCT005 
     FM281200 21004KT P6SM VCTS BKN003CB 
     FM281400 23005KT 5SM -SHRA BR BKN008 
     FM281800 27008KT P6SM OVC090 
     FM282300 31004KT P6SM FEW250